x

Dauphin Island, Al (dpia1) Weather Station

6:00pm - Thu 25th May 2017 All times are CDT. -5 hours from GMT.

  • Wind
    10mph, 13mph gusts
  • Air Temp 76°f
  • Sea Pressure 1011.2mb
  • Dauphin Island, Al
  • Dauphin Island, Al

More Historic Weather Station data

Upgrade to MSW Pro to gain access to the past 30 days of data for over 8000 Wavebouys and Weather Stations around the globe.

Join Pro

Comparision Forecast

View Surf forecast
   
Thu 05/25 6:00pm 10 13 mph 1011.2mb 76f
5:00pm 10 15 mph 1011.3mb 76f
4:00pm 13 17 mph 1011.6mb 75f
3:00pm 15 18 mph 1011.7mb 74f
2:00pm 13 17 mph 1012mb 73f
1:00pm 15 17 mph 1011.9mb 72f
12:00pm 16 17 mph 1012.3mb 71f
11:00am 11 14 mph 1012.7mb 70f
10:00am 10 13 mph 1012.3mb 69f
9:00am 10 11 mph 1011.8mb 67f
8:00am 11 13 mph 1011.3mb 66f
7:00am 11 14 mph 1010.6mb 68f
6:00am 13 15 mph 1009.9mb 68f
5:00am 14 16 mph 1009.2mb 67f
4:00am 15 17 mph 1008.8mb 67f
3:00am 18 21 mph 1008.2mb 68f
2:00am 21 24 mph 1007.7mb 69f
1:00am 17 20 mph 1007.6mb 69f
12:00am 18 22 mph 1007.6mb 71f
Wed 05/24 11:00pm 18 20 mph 1007.2mb 71f
10:00pm 17 21 mph 1006.4mb 72f
9:00pm 20 23 mph 1005.1mb 74f
8:00pm 16 20 mph 1004.3mb 74f
7:00pm 13 20 mph 1003.5mb 74f
6:00pm 10 15 mph 1003.5mb 75f
5:00pm 15 20 mph 1003.5mb 74f
4:00pm 17 20 mph 1003.3mb 74f
3:00pm 18 21 mph 1003.3mb 74f
2:00pm 20 22 mph 1003.6mb 74f
1:00pm 17 23 mph 1003.5mb 73f
12:00pm 14 21 mph 1003.6mb 74f
11:00am 13 14 mph 1004.1mb 72f
10:00am 13 15 mph 1004.2mb 72f
9:00am 10 13 mph 1003.8mb 72f
8:00am 20 22 mph 1003.1mb 71f
7:00am 9 11 mph 1002.5mb 74f
6:00am 11 13 mph 1002.4mb 73f
5:00am 3 5 mph 1002.7mb 73f
4:00am 9 10 mph 1004mb 74f
3:00am 9 11 mph 1004.6mb 75f
2:00am 10 11 mph 1005mb 76f
1:00am 8 9 mph 1005.2mb 77f
12:00am 9 14 mph 1006mb 77f
Tue 05/23 11:00pm 15 17 mph 1006.3mb 78f
10:00pm 13 21 mph 1006mb 78f
9:00pm 15 21 mph 1005.6mb 78f
8:00pm 18 23 mph 1005.3mb 78f
7:00pm 20 25 mph 1004.7mb 78f
6:00pm 17 21 mph 1005.5mb 78f
5:00pm 20 23 mph 1005.8mb 78f
4:00pm 16 21 mph 1006.7mb 78f
3:00pm 20 25 mph 1006.7mb 79f
2:00pm 18 26 mph 1006.9mb 79f
1:00pm 18 24 mph 1007mb 79f
12:00pm 21 29 mph 1007.6mb 79f
11:00am 17 26 mph 1007.9mb 78f
10:00am 23 29 mph 1007.8mb 78f
9:00am 20 28 mph 1007.7mb 78f
8:00am 20 25 mph 1008.2mb 78f
7:00am 18 26 mph 1007.6mb 78f
6:00am 18 25 mph 1008mb 78f
5:00am 26 31 mph 1007.9mb 78f
4:00am 23 26 mph 1008.1mb 77f
3:00am 18 21 mph 1008.9mb 76f
2:00am 15 17 mph 1010.2mb 75f
1:00am 16 18 mph 1012mb 76f
12:00am 11 13 mph 1013.2mb 77f
Mon 05/22 11:00pm 11 13 mph 1013.1mb 77f
10:00pm 5 6 mph 1012.7mb 76f
9:00pm 3 3 mph 1012.7mb 76f
8:00pm 2 3 mph 1013.6mb 76f
7:00pm  -  1 mph 1012.9mb 76f
6:00pm 3 5 mph 1013.3mb 76f
5:00pm  -  1 mph 1014.1mb 76f
4:00pm 5 7 mph 1014.6mb 77f
3:00pm 7 8 mph 1015.2mb 77f
2:00pm 7 8 mph 1015.7mb 77f
1:00pm 3 5 mph 1015.8mb 77f
12:00pm 5 6 mph 1015.8mb 76f
11:00am 3 5 mph 1017.2mb 75f
10:00am 3 6 mph 1017.2mb 74f
9:00am 6 7 mph 1017.3mb 74f
8:00am 7 7 mph 1017.5mb 74f
7:00am 8 10 mph 1017.3mb 73f
6:00am 10 11 mph 1017.7mb 72f
5:00am 10 11 mph 1016.9mb 74f
4:00am 6 7 mph 1016.1mb 75f
3:00am 1 2 mph 1016.4mb 74f
2:00am 3 3 mph 1016.9mb 75f
1:00am 5 6 mph 1017.3mb 74f